CheckWX is a tool to help pilots better visualize weather data.  It is not intended as a substitute for an official pre-flight weather briefing.

07:01:10 UTC

KDEW METAR
Deer Park Airport
Deer Park, Washington, USA
Current

1 hour ago

KDEW 310553Z AUTO 14008KT 10SM CLR 02/M02 A2985 RMK AO2 SLP120 T00171022 10094 20017 51008
Observed
Mar-31 @ 05:53 UTC
Wind
  • 140° at 8 KTS
Visibility
10 SM
Flight Rules
VFR
Cloud Levels
  • Clear skies
Temperature
C / 36°F
Dewpoint
-2°C / 28°F
Humidity
75%
Altimeter
29.85" Hg
Pressure
1010.82 hPa
Previous

2 hours ago

KDEW 310453Z AUTO 17010KT 10SM FEW090 03/M02 A2985 RMK AO2 SLP118 T00331017
Observed
Mar-31 @ 04:53 UTC
Wind
  • 170° at 10 KTS
Visibility
10 SM
Flight Rules
VFR
Cloud Levels
  • Few at 9,000' AGL
Temperature
C / 37°F
Dewpoint
-2°C / 28°F
Humidity
70%
Altimeter
29.85" Hg
Pressure
1010.82 hPa
Previous

4 hours ago

KDEW 310253Z AUTO 19011KT 10SM CLR 05/M04 A2983 RMK AO2 SLP111 T00501039 51016
Observed
Mar-31 @ 02:53 UTC
Wind
  • 190° at 11 KTS
Visibility
10 SM
Flight Rules
VFR
Cloud Levels
  • Clear skies
Temperature
C / 41°F
Dewpoint
-4°C / 25°F
Humidity
53%
Altimeter
29.83" Hg
Pressure
1010.12 hPa